sensor_id;sensor_type;location;lat;lon;timestamp;pressure;altitude;pressure_sealevel;temperature;humidity
76434;BME280;65265;53.200;6.080;2023-04-25T00:01:37;100963.41;;;6.31;87.85
76434;BME280;65265;53.200;6.080;2023-04-25T00:06:29;100965.50;;;6.24;87.85
76434;BME280;65265;53.200;6.080;2023-04-25T00:11:23;100972.66;;;6.16;87.66
76434;BME280;65265;53.200;6.080;2023-04-25T00:16:15;100974.66;;;6.07;87.23
76434;BME280;65265;53.200;6.080;2023-04-25T00:21:06;100978.22;;;5.96;87.47
76434;BME280;65265;53.200;6.080;2023-04-25T00:25:58;100983.72;;;5.89;87.97
76434;BME280;65265;53.200;6.080;2023-04-25T00:30:50;100976.00;;;5.88;88.34
76434;BME280;65265;53.200;6.080;2023-04-25T00:35:42;100974.97;;;5.84;88.08
76434;BME280;65265;53.200;6.080;2023-04-25T00:40:33;100977.50;;;5.84;88.38
76434;BME280;65265;53.200;6.080;2023-04-25T00:45:28;100979.03;;;5.82;88.22
76434;BME280;65265;53.200;6.080;2023-04-25T00:50:22;100979.03;;;5.82;88.36
76434;BME280;65265;53.200;6.080;2023-04-25T00:55:14;100973.97;;;5.82;88.27
76434;BME280;65265;53.200;6.080;2023-04-25T01:00:07;100973.13;;;5.82;88.69
76434;BME280;65265;53.200;6.080;2023-04-25T01:04:59;100979.16;;;5.84;89.48
76434;BME280;65265;53.200;6.080;2023-04-25T01:09:52;100980.84;;;5.83;89.37
76434;BME280;65265;53.200;6.080;2023-04-25T01:14:44;100986.88;;;5.85;89.33
76434;BME280;65265;53.200;6.080;2023-04-25T01:19:35;100992.72;;;5.84;88.17
76434;BME280;65265;53.200;6.080;2023-04-25T01:24:28;100992.72;;;5.84;87.17
76434;BME280;65265;53.200;6.080;2023-04-25T01:29:20;100991.94;;;5.85;85.38
76434;BME280;65265;53.200;6.080;2023-04-25T01:34:11;101002.09;;;5.85;84.52
76434;BME280;65265;53.200;6.080;2023-04-25T01:39:03;101002.00;;;5.84;83.02
76434;BME280;65265;53.200;6.080;2023-04-25T01:43:56;101009.31;;;5.79;81.35
76434;BME280;65265;53.200;6.080;2023-04-25T01:48:48;101013.28;;;5.76;79.78
76434;BME280;65265;53.200;6.080;2023-04-25T01:53:39;101017.13;;;5.69;78.84
76434;BME280;65265;53.200;6.080;2023-04-25T01:58:31;101022.97;;;5.68;78.25
76434;BME280;65265;53.200;6.080;2023-04-25T02:03:24;101022.97;;;5.68;78.21
76434;BME280;65265;53.200;6.080;2023-04-25T02:08:16;101023.59;;;5.64;79.99
76434;BME280;65265;53.200;6.080;2023-04-25T02:13:08;101030.41;;;5.65;80.69
76434;BME280;65265;53.200;6.080;2023-04-25T02:17:59;101039.00;;;5.67;81.58
76434;BME280;65265;53.200;6.080;2023-04-25T02:22:53;101049.81;;;5.65;84.22
76434;BME280;65265;53.200;6.080;2023-04-25T02:27:45;101068.06;;;5.59;87.48
76434;BME280;65265;53.200;6.080;2023-04-25T02:32:36;101060.13;;;5.40;83.85
76434;BME280;65265;53.200;6.080;2023-04-25T02:37:28;101044.31;;;5.18;83.42
76434;BME280;65265;53.200;6.080;2023-04-25T02:42:21;101050.94;;;5.03;81.44
76434;BME280;65265;53.200;6.080;2023-04-25T02:47:12;101052.91;;;4.94;81.94
76434;BME280;65265;53.200;6.080;2023-04-25T02:52:04;101042.34;;;4.88;84.82
76434;BME280;65265;53.200;6.080;2023-04-25T02:56:55;101043.13;;;4.87;85.58
76434;BME280;65265;53.200;6.080;2023-04-25T03:01:48;101049.28;;;4.91;85.72
76434;BME280;65265;53.200;6.080;2023-04-25T03:06:40;101034.75;;;4.88;86.00
76434;BME280;65265;53.200;6.080;2023-04-25T03:11:31;101035.03;;;4.93;86.65
76434;BME280;65265;53.200;6.080;2023-04-25T03:16:23;101041.09;;;4.95;86.28
76434;BME280;65265;53.200;6.080;2023-04-25T03:21:17;101037.28;;;4.88;85.89
76434;BME280;65265;53.200;6.080;2023-04-25T03:26:08;101050.34;;;4.94;85.15
76434;BME280;65265;53.200;6.080;2023-04-25T03:31:00;101051.81;;;4.91;84.50
76434;BME280;65265;53.200;6.080;2023-04-25T03:35:51;101057.19;;;4.95;84.81
76434;BME280;65265;53.200;6.080;2023-04-25T03:40:44;101072.47;;;4.97;84.85
76434;BME280;65265;53.200;6.080;2023-04-25T03:45:35;101085.44;;;5.01;85.35
76434;BME280;65265;53.200;6.080;2023-04-25T03:50:27;101069.44;;;4.89;85.15
76434;BME280;65265;53.200;6.080;2023-04-25T03:55:18;101069.41;;;4.76;85.18
76434;BME280;65265;53.200;6.080;2023-04-25T04:00:13;101076.22;;;4.64;84.93
76434;BME280;65265;53.200;6.080;2023-04-25T04:05:04;101069.56;;;4.54;85.19
76434;BME280;65265;53.200;6.080;2023-04-25T04:09:56;101087.44;;;4.44;85.47
76434;BME280;65265;53.200;6.080;2023-04-25T04:14:48;101087.59;;;4.34;86.52
76434;BME280;65265;53.200;6.080;2023-04-25T04:19:41;101098.31;;;4.30;86.18
76434;BME280;65265;53.200;6.080;2023-04-25T04:24:32;101092.16;;;4.26;86.38
76434;BME280;65265;53.200;6.080;2023-04-25T04:29:23;101095.13;;;4.21;86.93
76434;BME280;65265;53.200;6.080;2023-04-25T04:34:15;101107.78;;;4.21;87.58
76434;BME280;65265;53.200;6.080;2023-04-25T04:39:09;101104.59;;;4.23;88.14
76434;BME280;65265;53.200;6.080;2023-04-25T04:44:01;101112.03;;;4.33;88.78
76434;BME280;65265;53.200;6.080;2023-04-25T04:48:53;101115.09;;;4.41;88.28
76434;BME280;65265;53.200;6.080;2023-04-25T04:53:46;101124.28;;;4.52;86.46
76434;BME280;65265;53.200;6.080;2023-04-25T04:58:39;101133.50;;;4.63;85.97
76434;BME280;65265;53.200;6.080;2023-04-25T05:03:30;101134.31;;;4.74;85.11
76434;BME280;65265;53.200;6.080;2023-04-25T05:08:22;101149.75;;;4.90;83.92
76434;BME280;65265;53.200;6.080;2023-04-25T05:13:13;101151.63;;;5.06;85.24
76434;BME280;65265;53.200;6.080;2023-04-25T05:18:07;101144.84;;;5.18;83.80
76434;BME280;65265;53.200;6.080;2023-04-25T05:22:58;101146.22;;;5.26;83.50
76434;BME280;65265;53.200;6.080;2023-04-25T05:27:50;101163.66;;;5.34;81.75
76434;BME280;65265;53.200;6.080;2023-04-25T05:32:42;101156.06;;;5.34;81.89
76434;BME280;65265;53.200;6.080;2023-04-25T05:37:35;101162.69;;;5.32;82.15
76434;BME280;65265;53.200;6.080;2023-04-25T05:42:26;101159.56;;;5.36;82.15
76434;BME280;65265;53.200;6.080;2023-04-25T05:47:18;101183.66;;;5.43;80.35
76434;BME280;65265;53.200;6.080;2023-04-25T05:52:09;101191.19;;;5.41;81.24
76434;BME280;65265;53.200;6.080;2023-04-25T05:57:02;101186.19;;;5.30;80.19
76434;BME280;65265;53.200;6.080;2023-04-25T06:01:54;101196.81;;;5.24;79.18
76434;BME280;65265;53.200;6.080;2023-04-25T06:06:46;101206.28;;;5.27;78.84
76434;BME280;65265;53.200;6.080;2023-04-25T06:11:37;101208.72;;;5.38;77.43
76434;BME280;65265;53.200;6.080;2023-04-25T06:16:30;101218.91;;;5.51;80.04
76434;BME280;65265;53.200;6.080;2023-04-25T06:21:21;101211.13;;;5.61;80.47
76434;BME280;65265;53.200;6.080;2023-04-25T06:26:13;101211.50;;;5.67;80.27
76434;BME280;65265;53.200;6.080;2023-04-25T06:31:05;101215.25;;;5.72;80.41
76434;BME280;65265;53.200;6.080;2023-04-25T06:35:58;101223.97;;;5.89;79.97
76434;BME280;65265;53.200;6.080;2023-04-25T06:40:49;101230.28;;;6.08;80.18
76434;BME280;65265;53.200;6.080;2023-04-25T06:45:41;101231.34;;;6.25;82.04
76434;BME280;65265;53.200;6.080;2023-04-25T06:50:33;101236.50;;;6.39;80.60
76434;BME280;65265;53.200;6.080;2023-04-25T06:55:26;101243.91;;;6.36;80.34
76434;BME280;65265;53.200;6.080;2023-04-25T07:00:18;101260.75;;;6.21;80.14
76434;BME280;65265;53.200;6.080;2023-04-25T07:05:10;101255.38;;;6.04;80.28
76434;BME280;65265;53.200;6.080;2023-04-25T07:10:01;101241.13;;;6.06;79.94
76434;BME280;65265;53.200;6.080;2023-04-25T07:14:54;101250.59;;;6.21;76.16
76434;BME280;65265;53.200;6.080;2023-04-25T07:19:46;101253.09;;;6.34;74.79
76434;BME280;65265;53.200;6.080;2023-04-25T07:24:37;101266.84;;;6.51;74.73
76434;BME280;65265;53.200;6.080;2023-04-25T07:29:29;101262.97;;;6.56;75.03
76434;BME280;65265;53.200;6.080;2023-04-25T07:34:23;101270.84;;;6.60;75.51
76434;BME280;65265;53.200;6.080;2023-04-25T07:39:14;101277.94;;;6.66;75.48
76434;BME280;65265;53.200;6.080;2023-04-25T07:44:06;101278.59;;;6.89;78.99
76434;BME280;65265;53.200;6.080;2023-04-25T07:48:57;101277.56;;;7.00;76.23
76434;BME280;65265;53.200;6.080;2023-04-25T07:53:50;101295.50;;;7.16;77.65
76434;BME280;65265;53.200;6.080;2023-04-25T07:58:42;101289.69;;;7.46;75.69
76434;BME280;65265;53.200;6.080;2023-04-25T08:03:33;101295.16;;;7.81;74.88
76434;BME280;65265;53.200;6.080;2023-04-25T08:08:25;101309.31;;;7.90;74.46
76434;BME280;65265;53.200;6.080;2023-04-25T08:13:18;101331.41;;;7.77;74.11
76434;BME280;65265;53.200;6.080;2023-04-25T08:18:10;101323.81;;;7.49;74.65
76434;BME280;65265;53.200;6.080;2023-04-25T08:23:01;101332.66;;;7.41;75.10
76434;BME280;65265;53.200;6.080;2023-04-25T08:27:53;101336.44;;;7.48;73.72
76434;BME280;65265;53.200;6.080;2023-04-25T08:32:46;101331.03;;;7.71;75.42
76434;BME280;65265;53.200;6.080;2023-04-25T08:37:37;101328.59;;;8.16;71.91
76434;BME280;65265;53.200;6.080;2023-04-25T08:42:31;101329.53;;;8.61;73.19
76434;BME280;65265;53.200;6.080;2023-04-25T08:47:24;101337.00;;;9.05;68.43
76434;BME280;65265;53.200;6.080;2023-04-25T08:52:21;101342.94;;;9.20;70.37
76434;BME280;65265;53.200;6.080;2023-04-25T08:57:14;101353.28;;;8.76;70.81
76434;BME280;65265;53.200;6.080;2023-04-25T09:02:05;101359.69;;;8.54;70.25
76434;BME280;65265;53.200;6.080;2023-04-25T09:06:59;101362.84;;;9.11;71.37
76434;BME280;65265;53.200;6.080;2023-04-25T09:11:54;101364.72;;;9.61;64.48
76434;BME280;65265;53.200;6.080;2023-04-25T09:17:02;101375.41;;;10.19;63.21
76434;BME280;65265;53.200;6.080;2023-04-25T09:21:55;101385.47;;;10.67;60.52
76434;BME280;65265;53.200;6.080;2023-04-25T09:26:46;101399.59;;;11.13;60.79
76434;BME280;65265;53.200;6.080;2023-04-25T09:31:39;101396.38;;;11.36;58.63
76434;BME280;65265;53.200;6.080;2023-04-25T09:36:31;101408.41;;;10.83;55.57
76434;BME280;65265;53.200;6.080;2023-04-25T09:41:23;101411.91;;;11.39;56.97
76434;BME280;65265;53.200;6.080;2023-04-25T09:46:15;101413.75;;;11.24;54.72
76434;BME280;65265;53.200;6.080;2023-04-25T09:51:10;101414.50;;;11.96;58.38
76434;BME280;65265;53.200;6.080;2023-04-25T09:56:03;101415.16;;;11.54;57.95
76434;BME280;65265;53.200;6.080;2023-04-25T10:00:59;101436.09;;;10.57;60.90
76434;BME280;65265;53.200;6.080;2023-04-25T10:05:51;101434.06;;;10.16;64.55
76434;BME280;65265;53.200;6.080;2023-04-25T10:10:45;101442.88;;;10.05;65.38
76434;BME280;65265;53.200;6.080;2023-04-25T10:15:38;101448.03;;;10.07;65.46
76434;BME280;65265;53.200;6.080;2023-04-25T10:20:30;101457.63;;;9.33;65.15
76434;BME280;65265;53.200;6.080;2023-04-25T10:25:23;101467.09;;;8.60;68.35
76434;BME280;65265;53.200;6.080;2023-04-25T10:30:18;101460.97;;;8.42;71.46
76434;BME280;65265;53.200;6.080;2023-04-25T10:35:14;101462.19;;;8.63;71.64
76434;BME280;65265;53.200;6.080;2023-04-25T10:40:09;101465.28;;;9.02;68.05
76434;BME280;65265;53.200;6.080;2023-04-25T10:45:03;101459.91;;;9.58;66.22
76434;BME280;65265;53.200;6.080;2023-04-25T10:50:04;101472.66;;;10.38;64.74
76434;BME280;65265;53.200;6.080;2023-04-25T10:54:57;101465.94;;;11.09;62.58
76434;BME280;65265;53.200;6.080;2023-04-25T10:59:49;101471.75;;;11.96;62.09
76434;BME280;65265;53.200;6.080;2023-04-25T11:04:41;101469.41;;;11.63;61.91
76434;BME280;65265;53.200;6.080;2023-04-25T11:09:34;101478.41;;;12.31;63.17
76434;BME280;65265;53.200;6.080;2023-04-25T11:14:26;101493.28;;;12.79;58.31
76434;BME280;65265;53.200;6.080;2023-04-25T11:19:19;101489.47;;;13.10;58.03
76434;BME280;65265;53.200;6.080;2023-04-25T11:24:10;101497.00;;;13.72;59.34
76434;BME280;65265;53.200;6.080;2023-04-25T11:29:03;101525.56;;;12.53;53.49
76434;BME280;65265;53.200;6.080;2023-04-25T11:33:56;101540.97;;;11.25;57.77
76434;BME280;65265;53.200;6.080;2023-04-25T11:38:48;101539.94;;;10.37;63.50
76434;BME280;65265;53.200;6.080;2023-04-25T11:43:39;101522.53;;;10.14;64.53
76434;BME280;65265;53.200;6.080;2023-04-25T11:48:38;101522.69;;;10.33;61.86
76434;BME280;65265;53.200;6.080;2023-04-25T11:53:29;101532.59;;;10.77;60.90
76434;BME280;65265;53.200;6.080;2023-04-25T11:58:21;101536.00;;;10.60;63.23
76434;BME280;65265;53.200;6.080;2023-04-25T12:03:12;101544.91;;;10.34;63.79
76434;BME280;65265;53.200;6.080;2023-04-25T12:08:12;101524.91;;;9.95;64.63
76434;BME280;65265;53.200;6.080;2023-04-25T12:13:17;101521.94;;;10.85;62.87
76434;BME280;65265;53.200;6.080;2023-04-25T12:18:09;101519.03;;;10.95;60.58
76434;BME280;65265;53.200;6.080;2023-04-25T12:23:05;101535.13;;;11.63;58.31
76434;BME280;65265;53.200;6.080;2023-04-25T12:28:10;101523.66;;;12.10;55.37
76434;BME280;65265;53.200;6.080;2023-04-25T12:33:02;101540.53;;;13.23;54.92
76434;BME280;65265;53.200;6.080;2023-04-25T12:37:53;101529.28;;;13.86;53.29
76434;BME280;65265;53.200;6.080;2023-04-25T12:42:45;101528.44;;;14.55;53.42
76434;BME280;65265;53.200;6.080;2023-04-25T12:47:38;101534.16;;;14.02;50.82
76434;BME280;65265;53.200;6.080;2023-04-25T12:52:29;101546.84;;;13.75;54.41
76434;BME280;65265;53.200;6.080;2023-04-25T12:57:20;101551.19;;;12.72;53.95
76434;BME280;65265;53.200;6.080;2023-04-25T13:02:12;101556.84;;;12.26;54.40
76434;BME280;65265;53.200;6.080;2023-04-25T13:07:05;101555.97;;;12.06;55.56
76434;BME280;65265;53.200;6.080;2023-04-25T13:11:57;101562.38;;;12.74;56.69
76434;BME280;65265;53.200;6.080;2023-04-25T13:16:49;101576.50;;;12.44;59.40
76434;BME280;65265;53.200;6.080;2023-04-25T13:21:40;101572.41;;;12.30;62.69
76434;BME280;65265;53.200;6.080;2023-04-25T13:26:34;101585.16;;;11.56;62.93
76434;BME280;65265;53.200;6.080;2023-04-25T13:31:25;101581.09;;;11.60;64.27
76434;BME280;65265;53.200;6.080;2023-04-25T13:36:17;101574.63;;;11.50;58.63
76434;BME280;65265;53.200;6.080;2023-04-25T13:41:08;101572.41;;;12.30;60.45
76434;BME280;65265;53.200;6.080;2023-04-25T13:46:02;101574.53;;;12.39;58.87
76434;BME280;65265;53.200;6.080;2023-04-25T13:50:54;101585.72;;;12.22;56.63
76434;BME280;65265;53.200;6.080;2023-04-25T13:55:45;101603.03;;;11.90;59.75
76434;BME280;65265;53.200;6.080;2023-04-25T14:00:38;101594.31;;;12.05;59.76
76434;BME280;65265;53.200;6.080;2023-04-25T14:05:31;101599.25;;;12.95;59.68
76434;BME280;65265;53.200;6.080;2023-04-25T14:10:25;101600.50;;;13.88;54.43
76434;BME280;65265;53.200;6.080;2023-04-25T14:15:16;101587.47;;;14.28;49.17
76434;BME280;65265;53.200;6.080;2023-04-25T14:20:08;101600.97;;;13.78;49.78
76434;BME280;65265;53.200;6.080;2023-04-25T14:25:02;101598.34;;;13.77;51.37
76434;BME280;65265;53.200;6.080;2023-04-25T14:29:55;101594.09;;;14.44;51.80
76434;BME280;65265;53.200;6.080;2023-04-25T14:34:46;101611.28;;;13.58;54.55
76434;BME280;65265;53.200;6.080;2023-04-25T14:39:38;101622.19;;;12.72;56.06
76434;BME280;65265;53.200;6.080;2023-04-25T14:44:31;101620.16;;;12.65;57.45
76434;BME280;65265;53.200;6.080;2023-04-25T14:49:22;101623.53;;;12.64;54.40
76434;BME280;65265;53.200;6.080;2023-04-25T14:54:14;101630.06;;;12.38;54.59
76434;BME280;65265;53.200;6.080;2023-04-25T14:59:05;101630.69;;;12.52;54.34
76434;BME280;65265;53.200;6.080;2023-04-25T15:03:58;101645.31;;;12.54;55.47
76434;BME280;65265;53.200;6.080;2023-04-25T15:08:50;101654.97;;;12.22;54.35
76434;BME280;65265;53.200;6.080;2023-04-25T15:13:41;101657.28;;;11.81;58.37
76434;BME280;65265;53.200;6.080;2023-04-25T15:18:33;101650.34;;;11.96;58.27
76434;BME280;65265;53.200;6.080;2023-04-25T15:23:26;101648.84;;;12.01;52.93
76434;BME280;65265;53.200;6.080;2023-04-25T15:28:18;101649.03;;;12.23;52.37
76434;BME280;65265;53.200;6.080;2023-04-25T15:33:11;101638.94;;;12.45;51.37
76434;BME280;65265;53.200;6.080;2023-04-25T15:38:03;101644.97;;;12.09;52.92
76434;BME280;65265;53.200;6.080;2023-04-25T15:42:56;101645.03;;;11.93;54.09
76434;BME280;65265;53.200;6.080;2023-04-25T15:47:48;101645.72;;;11.72;55.34
76434;BME280;65265;53.200;6.080;2023-04-25T15:52:42;101644.66;;;11.67;56.21
76434;BME280;65265;53.200;6.080;2023-04-25T15:57:34;101644.13;;;11.23;56.97
76434;BME280;65265;53.200;6.080;2023-04-25T16:02:28;101654.53;;;11.10;59.44
76434;BME280;65265;53.200;6.080;2023-04-25T16:07:20;101655.31;;;10.75;61.38
76434;BME280;65265;53.200;6.080;2023-04-25T16:12:12;101655.00;;;10.85;61.75
76434;BME280;65265;53.200;6.080;2023-04-25T16:17:04;101658.44;;;10.70;59.49
76434;BME280;65265;53.200;6.080;2023-04-25T16:21:57;101667.16;;;10.41;60.82
76434;BME280;65265;53.200;6.080;2023-04-25T16:26:48;101664.09;;;10.48;57.20
76434;BME280;65265;53.200;6.080;2023-04-25T16:31:40;101663.06;;;10.61;58.46
76434;BME280;65265;53.200;6.080;2023-04-25T16:36:32;101670.31;;;11.01;55.94
76434;BME280;65265;53.200;6.080;2023-04-25T16:41:25;101672.34;;;11.24;54.23
76434;BME280;65265;53.200;6.080;2023-04-25T16:46:17;101673.31;;;11.44;56.29
76434;BME280;65265;53.200;6.080;2023-04-25T16:51:09;101671.25;;;11.19;55.65
76434;BME280;65265;53.200;6.080;2023-04-25T16:56:00;101672.44;;;11.10;55.95
76434;BME280;65265;53.200;6.080;2023-04-25T17:00:53;101678.41;;;10.93;54.91
76434;BME280;65265;53.200;6.080;2023-04-25T17:05:45;101680.28;;;10.63;57.12
76434;BME280;65265;53.200;6.080;2023-04-25T17:10:37;101689.38;;;10.58;56.56
76434;BME280;65265;53.200;6.080;2023-04-25T17:15:28;101683.13;;;10.69;57.35
76434;BME280;65265;53.200;6.080;2023-04-25T17:20:21;101684.19;;;10.57;56.98
76434;BME280;65265;53.200;6.080;2023-04-25T17:25:13;101688.31;;;10.55;57.46
76434;BME280;65265;53.200;6.080;2023-04-25T17:30:05;101689.78;;;10.50;58.39
76434;BME280;65265;53.200;6.080;2023-04-25T17:34:57;101699.69;;;10.13;61.30
76434;BME280;65265;53.200;6.080;2023-04-25T17:39:51;101707.91;;;10.08;62.27
76434;BME280;65265;53.200;6.080;2023-04-25T17:44:42;101710.22;;;9.89;62.57
76434;BME280;65265;53.200;6.080;2023-04-25T17:49:34;101710.50;;;9.64;62.53
76434;BME280;65265;53.200;6.080;2023-04-25T17:54:25;101713.69;;;9.46;62.53
76434;BME280;65265;53.200;6.080;2023-04-25T17:59:19;101725.09;;;9.24;63.91
76434;BME280;65265;53.200;6.080;2023-04-25T18:04:11;101736.25;;;8.97;65.21
76434;BME280;65265;53.200;6.080;2023-04-25T18:09:03;101739.28;;;8.64;64.58
76434;BME280;65265;53.200;6.080;2023-04-25T18:14:04;101732.97;;;8.44;64.46
76434;BME280;65265;53.200;6.080;2023-04-25T18:19:04;101730.84;;;8.24;63.89
76434;BME280;65265;53.200;6.080;2023-04-25T18:24:00;101746.31;;;8.01;61.82
76434;BME280;65265;53.200;6.080;2023-04-25T18:28:52;101746.94;;;7.47;63.73
76434;BME280;65265;53.200;6.080;2023-04-25T18:33:43;101743.03;;;7.39;63.52
76434;BME280;65265;53.200;6.080;2023-04-25T18:38:36;101759.44;;;7.31;65.95
76434;BME280;65265;53.200;6.080;2023-04-25T18:43:28;101772.91;;;7.17;67.20
76434;BME280;65265;53.200;6.080;2023-04-25T18:48:19;101771.06;;;7.03;68.47
76434;BME280;65265;53.200;6.080;2023-04-25T18:53:11;101771.53;;;6.97;68.81
76434;BME280;65265;53.200;6.080;2023-04-25T18:58:03;101772.25;;;6.84;68.92
76434;BME280;65265;53.200;6.080;2023-04-25T19:02:56;101776.25;;;6.80;69.70
76434;BME280;65265;53.200;6.080;2023-04-25T19:07:52;101791.75;;;6.72;71.29
76434;BME280;65265;53.200;6.080;2023-04-25T19:12:43;101789.91;;;6.46;73.06
76434;BME280;65265;53.200;6.080;2023-04-25T19:17:36;101785.31;;;6.29;74.34
76434;BME280;65265;53.200;6.080;2023-04-25T19:22:28;101792.81;;;6.16;74.60
76434;BME280;65265;53.200;6.080;2023-04-25T19:27:19;101802.09;;;6.04;75.59
76434;BME280;65265;53.200;6.080;2023-04-25T19:32:11;101805.50;;;5.93;76.43
76434;BME280;65265;53.200;6.080;2023-04-25T19:37:04;101798.03;;;5.83;77.44
76434;BME280;65265;53.200;6.080;2023-04-25T19:41:56;101802.38;;;5.74;77.88
76434;BME280;65265;53.200;6.080;2023-04-25T19:46:48;101798.81;;;5.61;78.20
76434;BME280;65265;53.200;6.080;2023-04-25T19:51:40;101804.88;;;5.51;78.46
76434;BME280;65265;53.200;6.080;2023-04-25T19:56:33;101802.94;;;5.37;79.20
76434;BME280;65265;53.200;6.080;2023-04-25T20:01:25;101816.53;;;5.38;79.47
76434;BME280;65265;53.200;6.080;2023-04-25T20:06:17;101807.38;;;5.40;81.10
76434;BME280;65265;53.200;6.080;2023-04-25T20:11:08;101812.56;;;5.41;81.12
76434;BME280;65265;53.200;6.080;2023-04-25T20:16:02;101807.25;;;5.38;80.28
76434;BME280;65265;53.200;6.080;2023-04-25T20:20:54;101812.66;;;5.31;80.17
76434;BME280;65265;53.200;6.080;2023-04-25T20:25:45;101810.41;;;5.24;80.25
76434;BME280;65265;53.200;6.080;2023-04-25T20:30:37;101808.28;;;5.19;79.22
76434;BME280;65265;53.200;6.080;2023-04-25T20:35:30;101798.47;;;5.12;78.11
76434;BME280;65265;53.200;6.080;2023-04-25T20:40:22;101803.06;;;5.06;78.08
76434;BME280;65265;53.200;6.080;2023-04-25T20:45:13;101796.00;;;5.02;77.40
76434;BME280;65265;53.200;6.080;2023-04-25T20:50:06;101789.63;;;4.85;76.89
76434;BME280;65265;53.200;6.080;2023-04-25T20:54:59;101798.78;;;4.83;76.75
76434;BME280;65265;53.200;6.080;2023-04-25T20:59:51;101802.00;;;4.71;77.16
76434;BME280;65265;53.200;6.080;2023-04-25T21:04:43;101800.06;;;4.57;77.39
76434;BME280;65265;53.200;6.080;2023-04-25T21:09:34;101790.34;;;4.52;77.94
76434;BME280;65265;53.200;6.080;2023-04-25T21:14:28;101796.66;;;4.47;77.21
76434;BME280;65265;53.200;6.080;2023-04-25T21:19:19;101796.06;;;4.39;77.94
76434;BME280;65265;53.200;6.080;2023-04-25T21:24:12;101798.25;;;4.35;78.19
76434;BME280;65265;53.200;6.080;2023-04-25T21:29:04;101797.38;;;4.34;78.40
76434;BME280;65265;53.200;6.080;2023-04-25T21:33:57;101797.25;;;4.33;78.85
76434;BME280;65265;53.200;6.080;2023-04-25T21:38:49;101807.97;;;4.40;79.50
76434;BME280;65265;53.200;6.080;2023-04-25T21:43:40;101815.13;;;4.56;80.27
76434;BME280;65265;53.200;6.080;2023-04-25T21:48:32;101806.59;;;4.65;80.38
76434;BME280;65265;53.200;6.080;2023-04-25T21:53:25;101810.47;;;4.71;80.43
76434;BME280;65265;53.200;6.080;2023-04-25T21:58:16;101813.00;;;4.71;79.47
76434;BME280;65265;53.200;6.080;2023-04-25T22:03:08;101813.53;;;4.67;80.04
76434;BME280;65265;53.200;6.080;2023-04-25T22:08:00;101810.28;;;4.58;79.85
76434;BME280;65265;53.200;6.080;2023-04-25T22:12:54;101816.53;;;4.52;79.46
76434;BME280;65265;53.200;6.080;2023-04-25T22:17:45;101802.91;;;4.40;79.88
76434;BME280;65265;53.200;6.080;2023-04-25T22:22:38;101813.31;;;4.33;80.81
76434;BME280;65265;53.200;6.080;2023-04-25T22:27:29;101815.59;;;4.30;81.12
76434;BME280;65265;53.200;6.080;2023-04-25T22:32:23;101815.22;;;4.26;81.35
76434;BME280;65265;53.200;6.080;2023-04-25T22:37:14;101813.63;;;4.16;81.50
76434;BME280;65265;53.200;6.080;2023-04-25T22:42:05;101818.31;;;4.12;82.02
76434;BME280;65265;53.200;6.080;2023-04-25T22:46:57;101818.47;;;4.03;82.98
76434;BME280;65265;53.200;6.080;2023-04-25T22:51:50;101821.78;;;4.02;82.71
76434;BME280;65265;53.200;6.080;2023-04-25T22:56:44;101822.63;;;4.03;83.53
76434;BME280;65265;53.200;6.080;2023-04-25T23:01:36;101831.22;;;4.05;83.49
76434;BME280;65265;53.200;6.080;2023-04-25T23:06:27;101836.66;;;4.09;83.10
76434;BME280;65265;53.200;6.080;2023-04-25T23:11:20;101837.31;;;4.17;83.07
76434;BME280;65265;53.200;6.080;2023-04-25T23:16:12;101844.84;;;4.27;83.34
76434;BME280;65265;53.200;6.080;2023-04-25T23:21:04;101843.66;;;4.43;82.15
76434;BME280;65265;53.200;6.080;2023-04-25T23:25:58;101848.09;;;4.46;82.63
76434;BME280;65265;53.200;6.080;2023-04-25T23:30:51;101843.38;;;4.50;82.56
76434;BME280;65265;53.200;6.080;2023-04-25T23:35:42;101839.34;;;4.42;83.16
76434;BME280;65265;53.200;6.080;2023-04-25T23:40:34;101848.09;;;4.46;83.69
76434;BME280;65265;53.200;6.080;2023-04-25T23:45:25;101847.63;;;4.40;83.95
76434;BME280;65265;53.200;6.080;2023-04-25T23:50:19;101839.38;;;4.32;83.39
76434;BME280;65265;53.200;6.080;2023-04-25T23:55:10;101845.00;;;4.18;83.51
